createdAt,value
2022-11-13T00:02:07.678Z,100913.22
2022-11-13T00:04:52.629Z,100901.84
2022-11-13T00:07:37.847Z,100903.38
2022-11-13T00:10:23.509Z,100881.69
2022-11-13T00:13:08.852Z,100900.94
2022-11-13T00:16:05.680Z,100902.66
2022-11-13T00:18:50.818Z,100892.66
2022-11-13T00:21:36.069Z,100862.09
2022-11-13T00:24:21.461Z,100886.34
2022-11-13T00:27:06.865Z,100880.75
2022-11-13T00:29:52.159Z,100894.09
2022-11-13T00:32:37.892Z,100879.09
2022-11-13T00:35:23.338Z,100887.81
2022-11-13T00:38:08.887Z,100862.38
2022-11-13T00:40:54.014Z,100871.41
2022-11-13T00:43:39.907Z,100904.38
2022-11-13T00:46:25.052Z,100890.81
2022-11-13T00:49:10.408Z,100912.44
2022-11-13T00:51:55.618Z,100899.88
2022-11-13T00:54:41.003Z,100883.41
2022-11-13T00:57:26.221Z,100907.84
2022-11-13T01:00:12.139Z,100897.03
2022-11-13T01:03:01.092Z,100877.22
2022-11-13T01:05:47.076Z,100879.00
2022-11-13T01:08:32.229Z,100888.84
2022-11-13T01:11:19.532Z,100868.34
2022-11-13T01:14:04.644Z,100869.97
2022-11-13T01:16:50.027Z,100878.53
2022-11-13T01:19:35.361Z,100864.94
2022-11-13T01:22:20.962Z,100871.13
2022-11-13T01:25:06.971Z,100850.72
2022-11-13T01:27:52.308Z,100858.81
2022-11-13T01:30:39.166Z,100826.03
2022-11-13T01:33:24.382Z,100817.38
2022-11-13T01:36:16.311Z,100849.81
2022-11-13T01:39:01.782Z,100811.06
2022-11-13T01:41:46.836Z,100821.59
2022-11-13T01:44:53.271Z,100848.63
2022-11-13T01:47:38.620Z,100749.75
2022-11-13T01:50:23.712Z,100750.44
2022-11-13T01:53:09.079Z,100816.56
2022-11-13T01:55:54.339Z,100835.72
2022-11-13T01:58:41.116Z,100827.81
2022-11-13T02:01:26.668Z,100803.13
2022-11-13T02:04:12.365Z,100738.91
2022-11-13T02:07:00.878Z,100729.28
2022-11-13T02:09:51.915Z,100817.63
2022-11-13T02:12:42.064Z,100809.78
2022-11-13T02:15:32.108Z,100799.81
2022-11-13T02:18:21.300Z,100786.66
2022-11-13T02:21:51.220Z,100796.75
2022-11-13T02:24:45.572Z,100796.50
2022-11-13T02:27:37.973Z,100795.78
2022-11-13T02:30:29.937Z,100770.22
2022-11-13T02:33:25.570Z,100782.44
2022-11-13T02:36:12.134Z,100769.69
2022-11-13T02:39:01.449Z,100792.94
2022-11-13T02:41:46.852Z,100777.41
2022-11-13T02:44:32.021Z,100788.66
2022-11-13T02:47:17.512Z,100786.19
2022-11-13T02:50:03.911Z,100793.06
2022-11-13T02:52:49.462Z,100738.56
2022-11-13T02:55:34.823Z,100772.69
2022-11-13T02:58:20.134Z,100790.00
2022-11-13T03:01:05.907Z,100755.06
2022-11-13T03:03:58.669Z,100781.16
2022-11-13T03:06:43.764Z,100746.34
2022-11-13T03:09:29.241Z,100769.34
2022-11-13T03:12:14.635Z,100769.00
2022-11-13T03:14:59.743Z,100736.56
2022-11-13T03:17:44.927Z,100690.75
2022-11-13T03:20:30.517Z,100766.94
2022-11-13T03:23:15.893Z,100760.00
2022-11-13T03:26:09.119Z,100767.44
2022-11-13T03:28:54.738Z,100752.78
2022-11-13T03:31:39.954Z,100770.53
2022-11-13T03:34:25.904Z,100773.16
2022-11-13T03:37:11.358Z,100771.16
2022-11-13T03:39:56.548Z,100776.97
2022-11-13T03:42:41.666Z,100776.16
2022-11-13T03:45:27.053Z,100772.31
2022-11-13T03:48:13.972Z,100787.31
2022-11-13T03:50:59.548Z,100764.53
2022-11-13T03:53:44.865Z,100768.97
2022-11-13T03:56:30.294Z,100735.78
2022-11-13T03:59:15.286Z,100764.53
2022-11-13T04:02:00.793Z,100768.56
2022-11-13T04:04:45.864Z,100765.00
2022-11-13T04:07:31.176Z,100761.84
2022-11-13T04:10:17.100Z,100710.22
2022-11-13T04:13:02.253Z,100696.00
2022-11-13T04:15:47.818Z,100741.22
2022-11-13T04:18:33.193Z,100739.09
2022-11-13T04:21:18.605Z,100742.44
2022-11-13T04:24:04.067Z,100731.44
2022-11-13T04:26:49.484Z,100742.34
2022-11-13T04:29:34.947Z,100731.69
2022-11-13T04:32:20.326Z,100739.50
2022-11-13T04:35:07.050Z,100734.94
2022-11-13T04:37:52.690Z,100742.31
2022-11-13T04:40:38.628Z,100706.75
2022-11-13T04:43:23.991Z,100751.94
2022-11-13T04:46:09.305Z,100734.81
2022-11-13T04:48:54.559Z,100701.69
2022-11-13T04:51:39.787Z,100629.47
2022-11-13T04:54:28.722Z,100710.06
2022-11-13T04:57:14.493Z,100724.84
2022-11-13T04:59:59.815Z,100718.50
2022-11-13T05:02:45.233Z,100659.75
2022-11-13T05:05:30.607Z,100699.59
2022-11-13T05:08:15.846Z,100718.19
2022-11-13T05:11:01.570Z,100719.47
2022-11-13T05:13:46.588Z,100649.06
2022-11-13T05:16:31.766Z,100739.13
2022-11-13T05:19:17.273Z,100725.56
2022-11-13T05:22:03.412Z,100722.00
2022-11-13T05:24:48.585Z,100696.25
2022-11-13T05:27:33.918Z,100679.38
2022-11-13T05:30:19.203Z,100709.97
2022-11-13T05:33:04.274Z,100617.22
2022-11-13T05:35:49.663Z,100701.16
2022-11-13T05:38:35.662Z,100685.38
2022-11-13T05:41:22.131Z,100691.44
2022-11-13T05:44:07.587Z,100696.19
2022-11-13T05:46:53.073Z,100669.66
2022-11-13T05:49:38.448Z,100664.63
2022-11-13T05:52:23.817Z,100621.47
2022-11-13T05:55:09.311Z,100656.31
2022-11-13T05:57:54.810Z,100650.34
2022-11-13T06:00:40.176Z,100639.84
2022-11-13T06:03:25.661Z,100624.78
2022-11-13T06:06:14.626Z,100644.59
2022-11-13T06:09:02.201Z,100645.53
2022-11-13T06:11:47.447Z,100626.25
2022-11-13T06:14:32.716Z,100653.66
2022-11-13T06:17:17.962Z,100565.66
2022-11-13T06:20:04.552Z,100649.28
2022-11-13T06:22:49.899Z,100657.84
2022-11-13T06:25:35.485Z,100634.28
2022-11-13T06:28:20.577Z,100602.97
2022-11-13T06:31:10.921Z,100553.16
2022-11-13T06:33:58.186Z,100554.66
2022-11-13T06:36:43.593Z,100603.31
2022-11-13T06:39:28.912Z,100623.03
2022-11-13T06:42:14.047Z,100646.84
2022-11-13T06:44:59.163Z,100597.25
2022-11-13T06:47:44.201Z,100642.72
2022-11-13T06:50:29.398Z,100608.03
2022-11-13T06:53:14.842Z,100636.38
2022-11-13T06:56:01.540Z,100637.66
2022-11-13T06:58:47.096Z,100618.28
2022-11-13T07:01:32.209Z,100568.75
2022-11-13T07:04:17.414Z,100628.34
2022-11-13T07:07:04.064Z,100526.00
2022-11-13T07:09:49.654Z,100615.03
2022-11-13T07:12:35.234Z,100613.78
2022-11-13T07:15:20.640Z,100629.75
2022-11-13T07:18:06.936Z,100622.69
2022-11-13T07:20:52.000Z,100629.78
2022-11-13T07:23:42.809Z,100642.88
2022-11-13T07:26:28.266Z,100581.19
2022-11-13T07:29:13.599Z,100620.72
2022-11-13T07:31:58.785Z,100618.31
2022-11-13T07:34:44.277Z,100588.47
2022-11-13T07:37:29.278Z,100615.28
2022-11-13T07:40:14.436Z,100503.47
2022-11-13T07:43:01.590Z,100601.22
2022-11-13T07:45:47.040Z,100565.38
2022-11-13T07:48:32.543Z,100537.50
2022-11-13T07:51:18.359Z,100580.22
2022-11-13T07:54:04.003Z,100574.03
2022-11-13T07:56:49.063Z,100565.09
2022-11-13T07:59:34.655Z,100535.31
2022-11-13T08:02:23.628Z,100556.91
2022-11-13T08:05:12.043Z,100500.72
2022-11-13T08:07:57.427Z,100544.38
2022-11-13T08:10:42.964Z,100524.03
2022-11-13T08:13:28.368Z,100478.34
2022-11-13T08:16:13.408Z,100540.34
2022-11-13T08:18:58.623Z,100539.41
2022-11-13T08:21:43.726Z,100555.47
2022-11-13T08:24:29.218Z,100534.28
2022-11-13T08:27:14.331Z,100545.94
2022-11-13T08:29:59.921Z,100534.53
2022-11-13T08:32:45.518Z,100544.72
2022-11-13T08:35:31.376Z,100546.09
2022-11-13T08:38:16.469Z,100541.56
2022-11-13T08:41:08.652Z,100537.88
2022-11-13T08:43:54.722Z,100478.13
2022-11-13T08:46:40.521Z,100485.09
2022-11-13T08:49:25.731Z,100502.44
2022-11-13T08:52:10.964Z,100520.09
2022-11-13T08:54:56.616Z,100498.75
2022-11-13T08:57:42.042Z,100356.38
2022-11-13T09:00:29.102Z,100499.25
2022-11-13T09:03:14.338Z,100493.13
2022-11-13T09:05:59.652Z,100434.44
2022-11-13T09:08:45.382Z,100433.88
2022-11-13T09:11:30.744Z,100361.03
2022-11-13T09:14:16.330Z,100422.91
2022-11-13T09:17:01.697Z,100423.94
2022-11-13T09:19:47.446Z,100395.78
2022-11-13T09:22:33.897Z,100387.44
2022-11-13T09:25:18.948Z,100333.22
2022-11-13T09:28:05.371Z,100407.84
2022-11-13T09:30:50.699Z,100406.66
2022-11-13T09:33:36.049Z,100389.03
2022-11-13T09:36:21.687Z,100382.13
2022-11-13T09:39:08.336Z,100359.44
2022-11-13T09:42:13.720Z,100317.25
2022-11-13T09:45:07.239Z,100363.66
2022-11-13T09:47:54.787Z,100337.63
2022-11-13T09:50:40.847Z,100354.16
2022-11-13T09:53:27.369Z,100346.50
2022-11-13T09:56:27.884Z,100213.41
2022-11-13T09:59:20.717Z,100344.41
2022-11-13T10:02:09.016Z,100342.84
2022-11-13T10:05:07.122Z,100346.16
2022-11-13T10:08:10.607Z,100336.94
2022-11-13T10:11:57.194Z,100328.09
2022-11-13T10:14:46.253Z,100330.28
2022-11-13T10:17:42.792Z,100321.41
2022-11-13T10:20:38.320Z,100322.53
2022-11-13T10:23:34.194Z,100268.03
2022-11-13T10:26:21.804Z,100302.59
2022-11-13T10:29:15.800Z,100317.06
2022-11-13T10:32:20.551Z,100234.91
2022-11-13T10:35:05.720Z,100294.88
2022-11-13T10:37:56.934Z,100311.16
2022-11-13T10:40:42.443Z,100304.94
2022-11-13T10:43:28.013Z,100295.56
2022-11-13T10:46:19.675Z,100295.63
2022-11-13T10:49:31.537Z,100289.91
2022-11-13T10:52:23.088Z,100283.47
2022-11-13T10:55:31.732Z,100253.75
2022-11-13T10:58:19.316Z,100276.59
2022-11-13T11:01:16.358Z,100278.72
2022-11-13T11:04:04.985Z,100259.13
2022-11-13T11:07:19.848Z,100277.00
2022-11-13T11:09:56.979Z,100273.84
2022-11-13T11:12:42.924Z,100283.22
2022-11-13T11:15:39.845Z,100258.72
2022-11-13T11:18:25.454Z,100256.97
2022-11-13T11:21:22.470Z,100249.44
2022-11-13T11:24:23.597Z,100261.75
2022-11-13T11:27:19.629Z,100228.91
2022-11-13T11:30:22.826Z,100245.34
2022-11-13T11:33:23.147Z,100254.38
2022-11-13T11:36:22.842Z,100254.59
2022-11-13T11:39:32.564Z,100255.78
2022-11-13T11:42:36.246Z,100234.47
2022-11-13T11:45:48.103Z,100218.66
2022-11-13T11:48:34.251Z,100244.56
2022-11-13T11:51:26.801Z,100229.53
2022-11-13T11:54:24.557Z,100217.84
2022-11-13T11:57:26.841Z,100173.25
2022-11-13T12:00:17.881Z,100185.59
2022-11-13T12:03:33.189Z,100170.97
2022-11-13T12:06:54.539Z,100156.91
2022-11-13T12:10:01.458Z,100159.69
2022-11-13T12:12:55.586Z,100164.38
2022-11-13T12:15:55.379Z,100158.84
2022-11-13T12:19:04.097Z,100142.59
2022-11-13T12:21:55.601Z,100142.53
2022-11-13T12:25:38.711Z,100138.41
2022-11-13T12:28:45.520Z,100149.91
2022-11-13T12:32:04.747Z,100150.94
2022-11-13T12:35:21.980Z,100156.88
2022-11-13T12:38:07.376Z,100135.22
2022-11-13T12:41:14.667Z,100138.28
2022-11-13T12:44:19.736Z,100138.56
2022-11-13T12:47:08.623Z,100093.63
2022-11-13T12:50:02.490Z,100115.19
2022-11-13T12:52:59.776Z,100131.19
2022-11-13T12:55:56.717Z,100130.16
2022-11-13T13:02:20.804Z,100122.16
2022-11-13T13:05:16.100Z,100122.06
2022-11-13T13:08:04.951Z,100116.66
2022-11-13T13:11:04.578Z,100106.59
2022-11-13T13:14:05.179Z,100096.72
2022-11-13T13:16:50.762Z,100067.97
2022-11-13T13:19:36.289Z,100084.59
2022-11-13T13:22:33.867Z,100055.47
2022-11-13T13:25:26.919Z,100053.66
2022-11-13T13:28:23.670Z,100059.38
2022-11-13T13:31:33.778Z,100057.50
2022-11-13T13:34:24.894Z,100059.78
2022-11-13T13:37:24.957Z,100050.13
2022-11-13T13:40:27.979Z,100041.13
2022-11-13T13:43:19.080Z,100033.69
2022-11-13T13:46:21.901Z,100026.31
2022-11-13T13:49:14.399Z,100044.63
2022-11-13T13:51:59.389Z,100024.31
2022-11-13T13:54:45.465Z,99980.00
2022-11-13T13:57:30.965Z,100011.16
2022-11-13T14:00:19.047Z,100035.00
2022-11-13T14:03:04.929Z,100027.22
2022-11-13T14:05:50.840Z,100019.63
2022-11-13T14:08:36.215Z,100021.69
2022-11-13T14:11:29.444Z,100008.34
2022-11-13T14:14:21.433Z,100017.59
2022-11-13T14:17:09.772Z,100008.56
2022-11-13T14:20:00.550Z,100008.13
2022-11-13T14:22:55.194Z,100008.69
2022-11-13T14:25:43.643Z,99993.69
2022-11-13T14:28:32.687Z,99978.28
2022-11-13T14:31:18.336Z,99980.72
2022-11-13T14:34:14.244Z,99973.31
2022-11-13T14:37:20.536Z,99960.97
2022-11-13T14:40:20.461Z,99944.88
2022-11-13T14:43:08.099Z,99955.09
2022-11-13T14:45:59.472Z,99944.78
2022-11-13T14:48:53.965Z,99936.63
2022-11-13T14:51:39.748Z,99939.22
2022-11-13T14:55:08.006Z,99922.53
2022-11-13T14:57:50.137Z,99887.00
2022-11-13T15:00:37.257Z,99895.91
2022-11-13T15:03:22.621Z,99935.44
2022-11-13T15:06:22.758Z,99928.00
2022-11-13T15:09:13.580Z,99946.00
2022-11-13T15:11:58.988Z,99939.97
2022-11-13T15:14:44.951Z,99891.94
2022-11-13T15:17:31.006Z,99922.34
2022-11-13T15:20:22.659Z,99929.94
2022-11-13T15:23:11.865Z,99912.91
2022-11-13T15:25:57.630Z,99929.22
2022-11-13T15:28:42.849Z,99918.88
2022-11-13T15:31:32.761Z,99916.91
2022-11-13T15:34:18.290Z,99902.63
2022-11-13T15:37:14.176Z,99852.03
2022-11-13T15:39:59.824Z,99849.59
2022-11-13T15:42:45.789Z,99905.81
2022-11-13T15:45:31.022Z,99897.78
2022-11-13T15:48:16.475Z,99918.75
2022-11-13T15:51:01.777Z,99901.28
2022-11-13T15:53:54.592Z,99908.97
2022-11-13T15:56:40.691Z,99864.63
2022-11-13T15:59:26.095Z,99869.03
2022-11-13T16:02:11.194Z,99892.91
2022-11-13T16:04:57.384Z,99898.63
2022-11-13T16:07:43.209Z,99885.56
2022-11-13T16:10:28.596Z,99827.97
2022-11-13T16:13:13.859Z,99852.22
2022-11-13T16:16:00.414Z,99888.38
2022-11-13T16:18:46.479Z,99848.53
2022-11-13T16:21:32.254Z,99857.53
2022-11-13T16:24:21.100Z,99899.72
2022-11-13T16:27:12.477Z,99906.09
2022-11-13T16:30:00.015Z,99879.72
2022-11-13T16:32:49.630Z,99893.03
2022-11-13T16:35:34.935Z,99903.53
2022-11-13T16:38:20.026Z,99894.19
2022-11-13T16:41:05.748Z,99871.69
2022-11-13T16:43:51.143Z,99901.56
2022-11-13T16:46:41.663Z,99906.25
2022-11-13T16:49:27.199Z,99907.50
2022-11-13T16:52:12.607Z,99910.66
2022-11-13T16:55:01.060Z,99901.78
2022-11-13T16:57:50.837Z,99917.47
2022-11-13T17:00:36.337Z,99883.66
2022-11-13T17:03:22.487Z,99904.00
2022-11-13T17:06:23.208Z,99910.44
2022-11-13T17:09:11.336Z,99903.19
2022-11-13T17:11:58.592Z,99878.47
2022-11-13T17:14:44.120Z,99876.13
2022-11-13T17:17:31.466Z,99914.94
2022-11-13T17:20:19.160Z,99908.66
2022-11-13T17:23:04.641Z,99922.34
2022-11-13T17:25:50.110Z,99905.50
2022-11-13T17:28:35.468Z,99872.84
2022-11-13T17:31:21.580Z,99896.44
2022-11-13T17:34:07.119Z,99901.72
2022-11-13T17:36:54.779Z,99889.31
2022-11-13T17:39:40.151Z,99904.53
2022-11-13T17:42:25.782Z,99900.19
2022-11-13T17:45:11.179Z,99884.78
2022-11-13T17:47:56.255Z,99904.56
2022-11-13T17:50:43.017Z,99920.16
2022-11-13T17:53:30.429Z,99914.81
2022-11-13T17:56:15.982Z,99927.66
2022-11-13T17:59:01.283Z,99917.06
2022-11-13T18:01:47.910Z,99911.25
2022-11-13T18:04:33.220Z,99867.16
2022-11-13T18:07:19.991Z,99896.88
2022-11-13T18:10:06.811Z,99882.75
2022-11-13T18:12:53.050Z,99893.00
2022-11-13T18:15:39.810Z,99911.00
2022-11-13T18:18:25.192Z,99875.63
2022-11-13T18:21:22.983Z,99900.22
2022-11-13T18:24:14.702Z,99883.03
2022-11-13T18:27:00.145Z,99916.50
2022-11-13T18:29:45.578Z,99831.00
2022-11-13T18:32:31.003Z,99879.31
2022-11-13T18:35:16.361Z,99927.28
2022-11-13T18:38:01.957Z,99812.28
2022-11-13T18:40:47.498Z,99916.69
2022-11-13T18:43:33.416Z,99914.41
2022-11-13T18:46:20.286Z,99918.41
2022-11-13T18:49:05.803Z,99924.34
2022-11-13T18:51:51.268Z,99901.25
2022-11-13T18:54:36.615Z,99923.56
2022-11-13T18:57:21.643Z,99913.25
2022-11-13T19:00:07.936Z,99928.22
2022-11-13T19:02:53.331Z,99928.22
2022-11-13T19:05:42.934Z,99913.84
2022-11-13T19:08:28.309Z,99878.44
2022-11-13T19:11:16.917Z,99924.50
2022-11-13T19:14:02.619Z,99844.31
2022-11-13T19:16:48.062Z,99915.09
2022-11-13T19:19:33.603Z,99921.59
2022-11-13T19:22:19.151Z,99903.16
2022-11-13T19:25:04.635Z,99895.06
2022-11-13T19:27:50.300Z,99911.81
2022-11-13T19:30:35.418Z,99902.72
2022-11-13T19:33:22.619Z,99826.78
2022-11-13T19:36:09.895Z,99901.66
2022-11-13T19:38:56.173Z,99898.13
2022-11-13T19:41:41.268Z,99899.78
2022-11-13T19:44:27.377Z,99891.16
2022-11-13T19:47:12.837Z,99882.66
2022-11-13T19:49:58.554Z,99888.50
2022-11-13T19:52:43.760Z,99845.66
2022-11-13T19:55:30.314Z,99883.03
2022-11-13T19:58:15.723Z,99880.44
2022-11-13T20:01:08.766Z,99892.31
2022-11-13T20:03:56.550Z,99896.81
2022-11-13T20:06:41.624Z,99890.94
2022-11-13T20:09:29.278Z,99869.91
2022-11-13T20:12:14.603Z,99904.81
2022-11-13T20:15:00.468Z,99821.44
2022-11-13T20:17:45.715Z,99852.13
2022-11-13T20:20:31.126Z,99892.94
2022-11-13T20:23:17.060Z,99904.16
2022-11-13T20:26:06.539Z,99861.00
2022-11-13T20:28:51.995Z,99901.66
2022-11-13T20:31:37.239Z,99889.00
2022-11-13T20:34:22.728Z,99875.91
2022-11-13T20:37:07.882Z,99885.97
2022-11-13T20:39:53.331Z,99883.63
2022-11-13T20:42:38.687Z,99894.25
2022-11-13T20:45:24.277Z,99895.84
2022-11-13T20:48:09.904Z,99902.69
2022-11-13T20:50:55.326Z,99907.16
2022-11-13T20:53:41.678Z,99911.22
2022-11-13T20:56:27.193Z,99918.81
2022-11-13T20:59:12.362Z,99925.88
2022-11-13T21:01:57.741Z,99921.03
2022-11-13T21:04:42.943Z,99919.19
2022-11-13T21:07:28.637Z,99905.63
2022-11-13T21:10:13.861Z,99921.88
2022-11-13T21:12:59.381Z,99919.06
2022-11-13T21:15:44.717Z,99898.72
2022-11-13T21:18:31.064Z,99919.78
2022-11-13T21:21:19.346Z,99846.19
2022-11-13T21:24:05.159Z,99902.41
2022-11-13T21:26:50.542Z,99910.28
2022-11-13T21:29:36.042Z,99935.31
2022-11-13T21:32:21.312Z,99915.66
2022-11-13T21:35:06.764Z,99921.22
2022-11-13T21:37:51.990Z,99907.47
2022-11-13T21:40:37.199Z,99905.94
2022-11-13T21:43:22.720Z,99893.50
2022-11-13T21:46:08.749Z,99903.84
2022-11-13T21:48:57.146Z,99892.34
2022-11-13T21:51:43.614Z,99893.59
2022-11-13T21:54:29.099Z,99879.34
2022-11-13T21:57:14.747Z,99863.84
2022-11-13T22:00:00.156Z,99860.25
2022-11-13T22:02:45.677Z,99857.75
2022-11-13T22:05:31.005Z,99818.16
2022-11-13T22:08:16.488Z,99860.94
2022-11-13T22:11:01.986Z,99871.16
2022-11-13T22:13:47.768Z,99848.81
2022-11-13T22:16:35.027Z,99858.78
2022-11-13T22:19:26.538Z,99862.94
2022-11-13T22:22:13.137Z,99792.09
2022-11-13T22:24:58.521Z,99863.78
2022-11-13T22:27:43.662Z,99856.72
2022-11-13T22:30:28.778Z,99860.50
2022-11-13T22:33:14.170Z,99846.09
2022-11-13T22:36:05.498Z,99863.59
2022-11-13T22:38:51.289Z,99845.28
2022-11-13T22:41:36.942Z,99822.41
2022-11-13T22:44:22.238Z,99851.25
2022-11-13T22:47:07.359Z,99805.72
2022-11-13T22:49:52.838Z,99798.81
2022-11-13T22:52:38.069Z,99841.31
2022-11-13T22:55:23.423Z,99839.78
2022-11-13T22:58:08.962Z,99851.13
2022-11-13T23:00:54.443Z,99814.72
2022-11-13T23:03:42.180Z,99810.88
2022-11-13T23:06:30.760Z,99814.75
2022-11-13T23:09:16.201Z,99804.56
2022-11-13T23:12:01.603Z,99843.72
2022-11-13T23:14:47.437Z,99819.72
2022-11-13T23:17:32.586Z,99848.34
2022-11-13T23:20:18.410Z,99758.84
2022-11-13T23:23:03.748Z,99827.03
2022-11-13T23:25:48.830Z,99802.97
2022-11-13T23:28:34.572Z,99825.94
2022-11-13T23:31:21.438Z,99824.72
2022-11-13T23:34:06.906Z,99810.47
2022-11-13T23:36:52.250Z,99824.84
2022-11-13T23:39:37.697Z,99830.03
2022-11-13T23:42:45.795Z,99823.53
2022-11-13T23:45:28.489Z,99820.56
2022-11-13T23:48:14.145Z,99825.41
2022-11-13T23:51:01.619Z,99826.69
2022-11-13T23:53:46.916Z,99778.19
2022-11-13T23:56:32.366Z,99817.16
2022-11-13T23:59:17.951Z,99813.94
